createdAt,value
2023-04-20T00:00:51.975Z,419.00
2023-04-20T00:01:52.036Z,420.00
2023-04-20T00:02:52.187Z,419.00
2023-04-20T00:03:52.497Z,420.00
2023-04-20T00:04:52.278Z,424.00
2023-04-20T00:05:52.266Z,425.00
2023-04-20T00:06:52.340Z,425.00
2023-04-20T00:07:52.377Z,427.00
2023-04-20T00:08:52.446Z,428.00
2023-04-20T00:09:52.529Z,429.00
2023-04-20T00:10:52.543Z,428.00
2023-04-20T00:11:52.625Z,428.00
2023-04-20T00:12:52.661Z,425.00
2023-04-20T00:13:52.709Z,424.00
2023-04-20T00:14:52.774Z,422.00
2023-04-20T00:15:52.824Z,423.00
2023-04-20T00:16:52.908Z,421.00
2023-04-20T00:17:52.958Z,419.00
2023-04-20T00:18:53.052Z,415.00
2023-04-20T00:19:53.060Z,416.00
2023-04-20T00:20:53.095Z,426.00
2023-04-20T00:21:53.157Z,424.00
2023-04-20T00:22:53.198Z,424.00
2023-04-20T00:23:53.255Z,421.00
2023-04-20T00:24:53.313Z,424.00
2023-04-20T00:25:53.355Z,426.00
2023-04-20T00:26:53.388Z,425.00
2023-04-20T00:27:53.378Z,423.00
2023-04-20T00:28:53.425Z,427.00
2023-04-20T00:29:53.429Z,426.00
2023-04-20T00:30:53.447Z,428.00
2023-04-20T00:31:53.427Z,428.00
2023-04-20T00:32:53.538Z,429.00
2023-04-20T00:33:53.516Z,428.00
2023-04-20T00:34:53.528Z,428.00
2023-04-20T00:35:53.540Z,423.00
2023-04-20T00:36:53.617Z,424.00
2023-04-20T00:37:53.619Z,428.00
2023-04-20T00:38:53.701Z,429.00
2023-04-20T00:39:53.667Z,431.00
2023-04-20T00:40:53.680Z,433.00
2023-04-20T00:41:53.706Z,428.00
2023-04-20T00:42:53.749Z,429.00
2023-04-20T00:43:53.845Z,424.00
2023-04-20T00:44:53.806Z,426.00
2023-04-20T00:45:53.863Z,430.00
2023-04-20T00:46:53.807Z,430.00
2023-04-20T00:47:53.860Z,430.00
2023-04-20T00:48:53.894Z,429.00
2023-04-20T00:49:53.871Z,428.00
2023-04-20T00:50:53.862Z,423.00
2023-04-20T00:51:53.809Z,429.00
2023-04-20T00:52:53.952Z,418.00
2023-04-20T00:53:53.922Z,421.00
2023-04-20T00:54:53.933Z,423.00
2023-04-20T00:55:53.926Z,423.00
2023-04-20T00:56:53.993Z,419.00
2023-04-20T00:57:53.955Z,422.00
2023-04-20T00:58:53.988Z,426.00
2023-04-20T00:59:54.022Z,424.00
2023-04-20T01:00:54.022Z,426.00
2023-04-20T01:01:54.126Z,429.00
2023-04-20T01:02:54.286Z,430.00
2023-04-20T01:03:54.222Z,428.00
2023-04-20T01:04:54.133Z,429.00
2023-04-20T01:05:54.165Z,430.00
2023-04-20T01:06:54.206Z,429.00
2023-04-20T01:07:54.258Z,428.00
2023-04-20T01:08:54.290Z,426.00
2023-04-20T01:09:54.251Z,424.00
2023-04-20T01:10:54.268Z,427.00
2023-04-20T01:11:54.253Z,428.00
2023-04-20T01:12:54.277Z,430.00
2023-04-20T01:13:54.333Z,430.00
2023-04-20T01:14:54.307Z,431.00
2023-04-20T01:15:54.326Z,435.00
2023-04-20T01:16:54.336Z,424.00
2023-04-20T01:17:54.385Z,428.00
2023-04-20T01:18:54.384Z,425.00
2023-04-20T01:19:54.381Z,422.00
2023-04-20T01:20:54.366Z,424.00
2023-04-20T01:21:54.322Z,420.00
2023-04-20T01:22:54.389Z,425.00
2023-04-20T01:23:54.347Z,432.00
2023-04-20T01:24:54.360Z,427.00
2023-04-20T01:25:54.359Z,425.00
2023-04-20T01:26:54.386Z,427.00
2023-04-20T01:27:54.383Z,426.00
2023-04-20T01:28:54.443Z,428.00
2023-04-20T01:29:54.421Z,430.00
2023-04-20T01:30:54.438Z,429.00
2023-04-20T01:31:54.485Z,428.00
2023-04-20T01:32:54.457Z,420.00
2023-04-20T01:33:54.425Z,429.00
2023-04-20T01:34:54.415Z,428.00
2023-04-20T01:35:54.389Z,428.00
2023-04-20T01:36:54.434Z,428.00
2023-04-20T01:37:54.446Z,427.00
2023-04-20T01:38:54.473Z,429.00
2023-04-20T01:39:54.535Z,429.00
2023-04-20T01:40:54.513Z,428.00
2023-04-20T01:41:54.509Z,429.00
2023-04-20T01:42:54.526Z,428.00
2023-04-20T01:43:54.522Z,430.00
2023-04-20T01:44:54.527Z,429.00
2023-04-20T01:45:54.534Z,427.00
2023-04-20T01:46:54.642Z,428.00
2023-04-20T01:47:54.591Z,427.00
2023-04-20T01:48:54.615Z,428.00
2023-04-20T01:49:54.589Z,428.00
2023-04-20T01:50:54.605Z,429.00
2023-04-20T01:51:54.618Z,429.00
2023-04-20T01:52:54.622Z,428.00
2023-04-20T01:53:54.645Z,430.00
2023-04-20T01:54:54.633Z,428.00
2023-04-20T01:55:54.653Z,426.00
2023-04-20T01:56:54.672Z,423.00
2023-04-20T01:57:54.698Z,422.00
2023-04-20T01:58:54.709Z,421.00
2023-04-20T01:59:54.738Z,424.00
2023-04-20T02:00:54.772Z,427.00
2023-04-20T02:01:54.786Z,427.00
2023-04-20T02:02:54.879Z,426.00
2023-04-20T02:03:54.936Z,422.00
2023-04-20T02:04:54.773Z,421.00
2023-04-20T02:05:54.842Z,419.00
2023-04-20T02:06:54.825Z,420.00
2023-04-20T02:07:54.840Z,418.00
2023-04-20T02:08:54.898Z,419.00
2023-04-20T02:09:54.855Z,422.00
2023-04-20T02:10:54.919Z,418.00
2023-04-20T02:11:54.911Z,419.00
2023-04-20T02:12:54.969Z,420.00
2023-04-20T02:13:54.943Z,419.00
2023-04-20T02:14:54.952Z,422.00
2023-04-20T02:15:54.994Z,421.00
2023-04-20T02:16:55.035Z,422.00
2023-04-20T02:17:55.024Z,424.00
2023-04-20T02:18:55.040Z,425.00
2023-04-20T02:19:55.018Z,431.00
2023-04-20T02:20:55.016Z,430.00
2023-04-20T02:21:55.989Z,431.00
2023-04-20T02:22:55.062Z,421.00
2023-04-20T02:23:55.520Z,423.00
2023-04-20T02:24:55.179Z,425.00
2023-04-20T02:25:55.180Z,424.00
2023-04-20T02:26:55.199Z,424.00
2023-04-20T02:27:55.233Z,422.00
2023-04-20T02:28:55.291Z,423.00
2023-04-20T02:29:55.350Z,421.00
2023-04-20T02:30:55.425Z,425.00
2023-04-20T02:31:55.417Z,427.00
2023-04-20T02:32:55.464Z,429.00
2023-04-20T02:33:55.518Z,435.00
2023-04-20T02:34:55.529Z,430.00
2023-04-20T02:35:55.538Z,432.00
2023-04-20T02:36:55.621Z,429.00
2023-04-20T02:37:55.627Z,430.00
2023-04-20T02:38:55.698Z,428.00
2023-04-20T02:39:55.720Z,428.00
2023-04-20T02:40:55.738Z,422.00
2023-04-20T02:41:55.787Z,418.00
2023-04-20T02:42:55.830Z,420.00
2023-04-20T02:43:55.902Z,422.00
2023-04-20T02:44:55.906Z,423.00
2023-04-20T02:45:55.940Z,426.00
2023-04-20T02:46:56.074Z,427.00
2023-04-20T02:47:56.147Z,429.00
2023-04-20T02:48:56.058Z,433.00
2023-04-20T02:49:56.089Z,429.00
2023-04-20T02:50:56.123Z,435.00
2023-04-20T02:51:56.146Z,436.00
2023-04-20T02:52:56.227Z,433.00
2023-04-20T02:53:56.282Z,436.00
2023-04-20T02:54:56.273Z,435.00
2023-04-20T02:55:56.308Z,438.00
2023-04-20T02:56:57.927Z,437.00
2023-04-20T02:57:56.380Z,436.00
2023-04-20T02:58:56.496Z,434.00
2023-04-20T02:59:56.474Z,433.00
2023-04-20T03:00:56.540Z,439.00
2023-04-20T03:01:56.642Z,418.00
2023-04-20T03:02:56.821Z,424.00
2023-04-20T03:03:56.847Z,424.00
2023-04-20T03:04:56.775Z,432.00
2023-04-20T03:05:56.907Z,433.00
2023-04-20T03:06:56.832Z,427.00
2023-04-20T03:07:56.921Z,429.00
2023-04-20T03:08:56.974Z,430.00
2023-04-20T03:09:57.011Z,427.00
2023-04-20T03:10:57.081Z,425.00
2023-04-20T03:11:57.125Z,429.00
2023-04-20T03:12:57.186Z,429.00
2023-04-20T03:13:57.305Z,418.00
2023-04-20T03:14:57.319Z,422.00
2023-04-20T03:15:57.432Z,426.00
2023-04-20T03:16:57.436Z,420.00
2023-04-20T03:17:57.515Z,422.00
2023-04-20T03:18:57.547Z,424.00
2023-04-20T03:19:57.598Z,425.00
2023-04-20T03:20:57.673Z,427.00
2023-04-20T03:21:57.758Z,428.00
2023-04-20T03:22:57.805Z,427.00
2023-04-20T03:23:57.855Z,428.00
2023-04-20T03:24:57.941Z,431.00
2023-04-20T03:25:57.984Z,415.00
2023-04-20T03:26:58.063Z,425.00
2023-04-20T03:27:58.168Z,428.00
2023-04-20T03:28:58.262Z,406.00
2023-04-20T03:29:58.226Z,418.00
2023-04-20T03:30:58.239Z,423.00
2023-04-20T03:31:58.359Z,427.00
2023-04-20T03:32:58.491Z,428.00
2023-04-20T03:33:58.441Z,428.00
2023-04-20T03:34:58.490Z,428.00
2023-04-20T03:35:58.554Z,422.00
2023-04-20T03:36:58.601Z,426.00
2023-04-20T03:37:58.658Z,423.00
2023-04-20T03:38:58.733Z,429.00
2023-04-20T03:39:58.834Z,431.00
2023-04-20T03:40:58.851Z,429.00
2023-04-20T03:41:58.968Z,428.00
2023-04-20T03:42:58.962Z,431.00
2023-04-20T03:43:59.058Z,432.00
2023-04-20T03:44:59.097Z,430.00
2023-04-20T03:45:59.241Z,425.00
2023-04-20T03:46:59.253Z,424.00
2023-04-20T03:47:59.380Z,426.00
2023-04-20T03:48:59.366Z,429.00
2023-04-20T03:49:59.417Z,425.00
2023-04-20T03:50:59.496Z,427.00
2023-04-20T03:51:59.548Z,428.00
2023-04-20T03:52:59.595Z,425.00
2023-04-20T03:53:59.669Z,431.00
2023-04-20T03:54:59.716Z,433.00
2023-04-20T03:55:59.740Z,434.00
2023-04-20T03:56:59.831Z,437.00
2023-04-20T03:57:59.867Z,438.00
2023-04-20T03:58:59.943Z,440.00
2023-04-20T03:59:59.996Z,440.00
2023-04-20T04:01:00.068Z,447.00
2023-04-20T04:02:00.225Z,440.00
2023-04-20T04:03:00.294Z,436.00
2023-04-20T04:04:00.573Z,435.00
2023-04-20T04:05:00.330Z,436.00
2023-04-20T04:06:00.256Z,434.00
2023-04-20T04:07:00.357Z,434.00
2023-04-20T04:08:00.430Z,436.00
2023-04-20T04:09:00.464Z,431.00
2023-04-20T04:10:00.535Z,425.00
2023-04-20T04:11:00.591Z,428.00
2023-04-20T04:12:00.616Z,431.00
2023-04-20T04:13:00.700Z,433.00
2023-04-20T04:14:00.800Z,437.00
2023-04-20T04:15:00.837Z,435.00
2023-04-20T04:16:00.886Z,438.00
2023-04-20T04:17:00.956Z,439.00
2023-04-20T04:18:01.071Z,441.00
2023-04-20T04:19:01.114Z,442.00
2023-04-20T04:20:01.159Z,443.00
2023-04-20T04:21:01.166Z,442.00
2023-04-20T04:22:01.255Z,440.00
2023-04-20T04:23:01.283Z,441.00
2023-04-20T04:24:01.382Z,435.00
2023-04-20T04:25:01.468Z,435.00
2023-04-20T04:26:01.555Z,438.00
2023-04-20T04:27:01.561Z,438.00
2023-04-20T04:28:01.617Z,437.00
2023-04-20T04:29:01.676Z,432.00
2023-04-20T04:30:01.778Z,433.00
2023-04-20T04:31:01.896Z,438.00
2023-04-20T04:32:01.948Z,439.00
2023-04-20T04:33:02.025Z,436.00
2023-04-20T04:34:02.021Z,436.00
2023-04-20T04:35:02.025Z,437.00
2023-04-20T04:36:02.141Z,438.00
2023-04-20T04:37:02.155Z,436.00
2023-04-20T04:38:02.161Z,437.00
2023-04-20T04:39:02.201Z,437.00
2023-04-20T04:40:02.899Z,436.00
2023-04-20T04:41:02.284Z,437.00
2023-04-20T04:42:04.281Z,437.00
2023-04-20T04:43:02.456Z,439.00
2023-04-20T04:44:02.546Z,437.00
2023-04-20T04:45:02.564Z,440.00
2023-04-20T04:46:02.656Z,439.00
2023-04-20T04:47:02.705Z,438.00
2023-04-20T04:48:02.810Z,439.00
2023-04-20T04:49:02.860Z,442.00
2023-04-20T04:50:02.896Z,434.00
2023-04-20T04:51:02.964Z,428.00
2023-04-20T04:52:03.017Z,438.00
2023-04-20T04:53:03.080Z,432.00
2023-04-20T04:54:03.141Z,439.00
2023-04-20T04:55:03.156Z,436.00
2023-04-20T04:56:03.204Z,436.00
2023-04-20T04:57:03.228Z,437.00
2023-04-20T04:58:03.263Z,440.00
2023-04-20T04:59:03.354Z,443.00
2023-04-20T05:00:03.381Z,436.00
2023-04-20T05:01:03.484Z,439.00
2023-04-20T05:02:03.650Z,433.00
2023-04-20T05:03:03.658Z,435.00
2023-04-20T05:04:03.818Z,430.00
2023-04-20T05:05:03.792Z,440.00
2023-04-20T05:06:03.731Z,436.00
2023-04-20T05:07:03.741Z,439.00
2023-04-20T05:08:03.744Z,428.00
2023-04-20T05:09:03.821Z,432.00
2023-04-20T05:10:03.794Z,433.00
2023-04-20T05:11:03.779Z,433.00
2023-04-20T05:12:03.779Z,436.00
2023-04-20T05:13:03.797Z,440.00
2023-04-20T05:14:03.792Z,439.00
2023-04-20T05:15:03.795Z,441.00
2023-04-20T05:16:03.820Z,447.00
2023-04-20T05:17:03.793Z,440.00
2023-04-20T05:18:03.908Z,437.00
2023-04-20T05:19:03.862Z,439.00
2023-04-20T05:20:03.882Z,439.00
2023-04-20T05:21:03.957Z,438.00
2023-04-20T05:22:04.034Z,441.00
2023-04-20T05:23:05.019Z,441.00
2023-04-20T05:24:04.155Z,442.00
2023-04-20T05:25:04.151Z,444.00
2023-04-20T05:26:04.242Z,446.00
2023-04-20T05:27:04.283Z,445.00
2023-04-20T05:28:04.340Z,447.00
2023-04-20T05:29:04.348Z,441.00
2023-04-20T05:30:17.131Z,443.00
2023-04-20T05:31:05.367Z,444.00
2023-04-20T05:32:04.370Z,443.00
2023-04-20T05:33:04.434Z,446.00
2023-04-20T05:34:04.320Z,447.00
2023-04-20T05:35:04.348Z,449.00
2023-04-20T05:36:04.358Z,451.00
2023-04-20T05:37:04.306Z,449.00
2023-04-20T05:38:04.315Z,448.00
2023-04-20T05:39:04.353Z,451.00
2023-04-20T05:40:04.428Z,447.00
2023-04-20T05:41:04.479Z,449.00
2023-04-20T05:42:04.519Z,449.00
2023-04-20T05:43:04.651Z,458.00
2023-04-20T05:44:04.657Z,461.00
2023-04-20T05:45:04.767Z,463.00
2023-04-20T05:46:04.820Z,462.00
2023-04-20T05:47:04.917Z,461.00
2023-04-20T05:48:04.957Z,456.00
2023-04-20T05:49:05.006Z,459.00
2023-04-20T05:50:05.022Z,450.00
2023-04-20T05:51:05.109Z,450.00
2023-04-20T05:52:05.169Z,449.00
2023-04-20T05:53:05.278Z,457.00
2023-04-20T05:54:05.278Z,460.00
2023-04-20T05:55:05.344Z,457.00
2023-04-20T05:56:05.355Z,457.00
2023-04-20T05:57:05.401Z,454.00
2023-04-20T05:58:05.482Z,458.00
2023-04-20T05:59:05.541Z,457.00
2023-04-20T06:00:05.587Z,458.00
2023-04-20T06:01:05.640Z,462.00
2023-04-20T06:02:05.741Z,463.00
2023-04-20T06:03:05.907Z,462.00
2023-04-20T06:04:05.944Z,460.00
2023-04-20T06:05:05.968Z,460.00
2023-04-20T06:06:05.940Z,460.00
2023-04-20T06:07:06.054Z,457.00
2023-04-20T06:08:06.069Z,462.00
2023-04-20T06:09:06.080Z,455.00
2023-04-20T06:10:06.186Z,456.00
2023-04-20T06:11:06.219Z,454.00
2023-04-20T06:12:06.239Z,454.00
2023-04-20T06:13:06.315Z,455.00
2023-04-20T06:14:06.340Z,457.00
2023-04-20T06:15:06.368Z,457.00
2023-04-20T06:16:06.506Z,461.00
2023-04-20T06:17:06.458Z,453.00
2023-04-20T06:18:06.532Z,459.00
2023-04-20T06:19:06.577Z,457.00
2023-04-20T06:20:06.592Z,456.00
2023-04-20T06:21:06.646Z,454.00
2023-04-20T06:22:06.704Z,452.00
2023-04-20T06:23:06.719Z,451.00
2023-04-20T06:24:06.801Z,453.00
2023-04-20T06:25:06.872Z,455.00
2023-04-20T06:26:06.956Z,453.00
2023-04-20T06:27:06.971Z,456.00
2023-04-20T06:28:07.056Z,457.00
2023-04-20T06:29:07.150Z,456.00
2023-04-20T06:30:07.188Z,463.00
2023-04-20T06:31:07.244Z,448.00
2023-04-20T06:32:07.272Z,452.00
2023-04-20T06:33:07.765Z,444.00
2023-04-20T06:34:07.413Z,450.00
2023-04-20T06:35:07.392Z,456.00
2023-04-20T06:36:07.463Z,455.00
2023-04-20T06:37:07.540Z,455.00
2023-04-20T06:38:07.596Z,447.00
2023-04-20T06:39:07.597Z,453.00
2023-04-20T06:40:07.635Z,452.00
2023-04-20T06:41:07.691Z,452.00
2023-04-20T06:42:07.732Z,453.00
2023-04-20T06:43:07.811Z,450.00
2023-04-20T06:44:07.870Z,456.00
2023-04-20T06:45:07.877Z,449.00
2023-04-20T06:46:07.917Z,443.00
2023-04-20T06:47:08.067Z,444.00
2023-04-20T06:48:23.575Z,447.00
2023-04-20T06:49:09.022Z,447.00
2023-04-20T06:50:08.025Z,450.00
2023-04-20T06:51:08.074Z,452.00
2023-04-20T06:52:08.045Z,457.00
2023-04-20T06:53:08.045Z,463.00
2023-04-20T06:54:08.110Z,463.00
2023-04-20T06:55:08.096Z,459.00
2023-04-20T06:56:08.100Z,464.00
2023-04-20T06:57:08.120Z,469.00
2023-04-20T06:58:08.148Z,467.00
2023-04-20T06:59:08.144Z,463.00
2023-04-20T07:00:08.177Z,456.00
2023-04-20T07:01:08.238Z,448.00
2023-04-20T07:02:08.386Z,454.00
2023-04-20T07:03:08.322Z,453.00
2023-04-20T07:04:08.354Z,455.00
2023-04-20T07:05:08.280Z,453.00
2023-04-20T07:06:08.268Z,453.00
2023-04-20T07:07:08.327Z,453.00
2023-04-20T07:08:08.340Z,455.00
2023-04-20T07:09:08.371Z,450.00
2023-04-20T07:10:08.410Z,455.00
2023-04-20T07:11:08.445Z,458.00
2023-04-20T07:12:08.434Z,460.00
2023-04-20T07:13:08.495Z,461.00
2023-04-20T07:14:08.523Z,458.00
2023-04-20T07:15:08.545Z,458.00
2023-04-20T07:16:08.556Z,463.00
2023-04-20T07:17:08.611Z,469.00
2023-04-20T07:18:08.635Z,465.00
2023-04-20T07:19:08.594Z,468.00
2023-04-20T07:20:08.658Z,470.00
2023-04-20T07:21:08.607Z,471.00
2023-04-20T07:22:08.652Z,467.00
2023-04-20T07:23:08.636Z,468.00
2023-04-20T07:24:08.641Z,463.00
2023-04-20T07:25:08.704Z,461.00
2023-04-20T07:26:08.661Z,443.00
2023-04-20T07:27:08.657Z,459.00
2023-04-20T07:28:08.653Z,454.00
2023-04-20T07:29:08.670Z,454.00
2023-04-20T07:30:08.725Z,452.00
2023-04-20T07:31:08.675Z,454.00
2023-04-20T07:32:08.767Z,453.00
2023-04-20T07:33:08.828Z,455.00
2023-04-20T07:34:08.691Z,459.00
2023-04-20T07:35:08.718Z,463.00
2023-04-20T07:36:08.678Z,461.00
2023-04-20T07:37:08.734Z,459.00
2023-04-20T07:38:08.702Z,463.00
2023-04-20T07:39:08.697Z,464.00
2023-04-20T07:40:08.712Z,464.00
2023-04-20T07:41:08.685Z,467.00
2023-04-20T07:42:08.671Z,458.00
2023-04-20T07:43:08.665Z,458.00
2023-04-20T07:44:08.695Z,461.00
2023-04-20T07:45:08.700Z,464.00
2023-04-20T07:46:08.761Z,462.00
2023-04-20T07:47:08.720Z,459.00
2023-04-20T07:48:08.804Z,454.00
2023-04-20T07:49:08.827Z,447.00
2023-04-20T07:50:08.794Z,446.00
2023-04-20T07:51:08.785Z,444.00
2023-04-20T07:52:16.289Z,450.00
2023-04-20T07:53:09.770Z,460.00
2023-04-20T07:54:08.807Z,459.00
2023-04-20T07:55:08.765Z,459.00
2023-04-20T07:56:08.749Z,458.00
2023-04-20T07:57:08.774Z,464.00
2023-04-20T07:58:08.734Z,467.00
2023-04-20T07:59:08.769Z,462.00
2023-04-20T08:00:08.947Z,460.00
2023-04-20T08:01:08.761Z,458.00
2023-04-20T08:02:08.972Z,454.00
2023-04-20T08:03:08.973Z,448.00
2023-04-20T08:04:09.073Z,442.00
2023-04-20T08:05:08.978Z,446.00
2023-04-20T08:06:09.000Z,437.00
2023-04-20T08:07:08.972Z,437.00
2023-04-20T08:08:09.007Z,438.00
2023-04-20T08:09:09.999Z,444.00
2023-04-20T08:10:09.128Z,441.00
2023-04-20T08:11:09.075Z,439.00
2023-04-20T08:12:09.062Z,440.00
2023-04-20T08:13:09.100Z,438.00
2023-04-20T08:15:09.234Z,436.00
2023-04-20T08:16:09.127Z,436.00
2023-04-20T08:17:09.164Z,438.00
2023-04-20T08:18:09.261Z,435.00
2023-04-20T08:19:09.249Z,437.00
2023-04-20T08:20:09.226Z,438.00
2023-04-20T08:21:09.199Z,440.00
2023-04-20T08:22:09.242Z,440.00
2023-04-20T08:23:09.236Z,443.00
2023-04-20T08:24:09.194Z,440.00
2023-04-20T08:25:09.233Z,442.00
2023-04-20T08:26:09.257Z,440.00
2023-04-20T08:27:09.308Z,441.00
2023-04-20T08:28:15.434Z,431.00
2023-04-20T08:29:10.289Z,436.00
2023-04-20T08:30:09.271Z,442.00
2023-04-20T08:31:09.287Z,447.00
2023-04-20T08:32:09.420Z,445.00
2023-04-20T08:33:09.299Z,443.00
2023-04-20T08:34:09.240Z,446.00
2023-04-20T08:35:09.246Z,430.00
2023-04-20T08:36:09.232Z,435.00
2023-04-20T08:37:09.208Z,441.00
2023-04-20T08:38:09.231Z,445.00
2023-04-20T08:39:09.323Z,440.00
2023-04-20T08:40:09.393Z,450.00
2023-04-20T08:41:09.366Z,441.00
2023-04-20T08:42:09.443Z,444.00
2023-04-20T08:43:09.558Z,447.00
2023-04-20T08:44:09.574Z,444.00
2023-04-20T08:45:09.619Z,444.00
2023-04-20T08:46:09.652Z,446.00
2023-04-20T08:47:09.673Z,445.00
2023-04-20T08:48:09.762Z,456.00
2023-04-20T08:49:09.794Z,448.00
2023-04-20T08:50:09.927Z,449.00
2023-04-20T08:51:09.872Z,448.00
2023-04-20T08:52:09.893Z,447.00
2023-04-20T08:53:09.930Z,441.00
2023-04-20T08:54:09.941Z,446.00
2023-04-20T08:55:09.935Z,445.00
2023-04-20T08:56:09.935Z,444.00
2023-04-20T08:57:09.982Z,434.00
2023-04-20T08:58:09.957Z,447.00
2023-04-20T08:59:09.981Z,448.00
2023-04-20T09:00:12.121Z,436.00
2023-04-20T09:01:09.964Z,449.00
2023-04-20T09:02:09.999Z,450.00
2023-04-20T09:03:10.148Z,448.00
2023-04-20T09:04:10.115Z,443.00
2023-04-20T09:05:09.977Z,448.00
2023-04-20T09:06:09.900Z,451.00
2023-04-20T09:07:09.911Z,456.00
2023-04-20T09:08:09.895Z,421.00
2023-04-20T09:09:09.891Z,435.00
2023-04-20T09:10:09.867Z,438.00
2023-04-20T09:11:09.852Z,440.00
2023-04-20T09:12:09.880Z,435.00
2023-04-20T09:13:09.890Z,442.00
2023-04-20T09:14:09.874Z,443.00
2023-04-20T09:15:09.874Z,448.00
2023-04-20T09:16:09.876Z,446.00
2023-04-20T09:17:09.844Z,435.00
2023-04-20T09:18:09.894Z,443.00
2023-04-20T09:19:10.440Z,437.00
2023-04-20T09:20:09.786Z,439.00
2023-04-20T09:21:09.830Z,438.00
2023-04-20T09:22:09.806Z,439.00
2023-04-20T09:23:09.768Z,439.00
2023-04-20T09:24:09.786Z,439.00
2023-04-20T09:25:09.779Z,443.00
2023-04-20T09:26:09.764Z,444.00
2023-04-20T09:27:09.780Z,447.00
2023-04-20T09:28:09.739Z,445.00
2023-04-20T09:29:09.771Z,443.00
2023-04-20T09:30:09.745Z,435.00
2023-04-20T09:31:09.773Z,428.00
2023-04-20T09:32:09.815Z,431.00
2023-04-20T09:33:09.877Z,424.00
2023-04-20T09:34:09.898Z,430.00
2023-04-20T09:35:09.896Z,437.00
2023-04-20T09:36:09.949Z,441.00
2023-04-20T09:37:10.013Z,441.00
2023-04-20T09:38:10.068Z,443.00
2023-04-20T09:39:10.081Z,441.00
2023-04-20T09:40:10.080Z,440.00
2023-04-20T09:41:10.144Z,441.00
2023-04-20T09:42:10.203Z,439.00
2023-04-20T09:43:10.189Z,440.00
2023-04-20T09:44:10.267Z,435.00
2023-04-20T09:45:10.314Z,432.00
2023-04-20T09:46:10.261Z,430.00
2023-04-20T09:47:10.279Z,437.00
2023-04-20T09:48:10.267Z,446.00
2023-04-20T09:49:10.569Z,445.00
2023-04-20T09:50:23.354Z,444.00
2023-04-20T09:51:11.374Z,445.00
2023-04-20T09:52:10.325Z,444.00
2023-04-20T09:53:10.323Z,445.00
2023-04-20T09:54:10.358Z,447.00
2023-04-20T09:55:10.303Z,441.00
2023-04-20T09:56:10.312Z,434.00
2023-04-20T09:57:10.296Z,511.00
2023-04-20T09:58:10.306Z,477.00
2023-04-20T09:59:10.277Z,420.00
2023-04-20T10:00:10.293Z,424.00
2023-04-20T10:01:10.300Z,430.00
2023-04-20T10:02:10.407Z,430.00
2023-04-20T10:03:10.379Z,437.00
2023-04-20T10:04:10.467Z,435.00
2023-04-20T10:05:10.250Z,435.00
2023-04-20T10:06:10.239Z,435.00
2023-04-20T10:07:10.247Z,434.00
2023-04-20T10:08:10.217Z,432.00
2023-04-20T10:09:10.257Z,433.00
2023-04-20T10:10:10.209Z,436.00
2023-04-20T10:11:10.203Z,428.00
2023-04-20T10:12:10.193Z,433.00
2023-04-20T10:13:10.169Z,423.00
2023-04-20T10:14:10.197Z,429.00
2023-04-20T10:15:10.191Z,460.00
2023-04-20T10:16:10.214Z,412.00
2023-04-20T10:17:10.571Z,433.00
2023-04-20T10:18:10.297Z,435.00
2023-04-20T10:19:10.219Z,435.00
2023-04-20T10:20:10.133Z,432.00
2023-04-20T10:21:10.149Z,440.00
2023-04-20T10:22:10.148Z,424.00
2023-04-20T10:23:10.195Z,424.00
2023-04-20T10:24:10.176Z,426.00
2023-04-20T10:25:10.125Z,428.00
2023-04-20T10:26:10.133Z,431.00
2023-04-20T10:27:10.213Z,433.00
2023-04-20T10:28:10.222Z,435.00
2023-04-20T10:29:10.291Z,405.00
2023-04-20T10:30:10.368Z,428.00
2023-04-20T10:31:10.412Z,433.00
2023-04-20T10:32:10.478Z,419.00
2023-04-20T10:33:10.632Z,430.00
2023-04-20T10:34:10.616Z,431.00
2023-04-20T10:35:10.671Z,432.00
2023-04-20T10:36:10.716Z,433.00
2023-04-20T10:37:10.758Z,433.00
2023-04-20T10:38:10.785Z,432.00
2023-04-20T10:39:10.869Z,429.00
2023-04-20T10:40:10.907Z,428.00
2023-04-20T10:41:10.959Z,430.00
2023-04-20T10:42:10.993Z,430.00
2023-04-20T10:43:11.001Z,426.00
2023-04-20T10:44:11.025Z,432.00
2023-04-20T10:45:11.085Z,430.00
2023-04-20T10:46:11.092Z,429.00
2023-04-20T10:47:11.110Z,430.00
2023-04-20T10:48:11.343Z,429.00
2023-04-20T10:49:11.179Z,431.00
2023-04-20T10:50:11.223Z,427.00
2023-04-20T10:51:11.249Z,424.00
2023-04-20T10:52:11.262Z,423.00
2023-04-20T10:53:11.310Z,422.00
2023-04-20T10:54:11.376Z,414.00
2023-04-20T10:55:11.404Z,416.00
2023-04-20T10:56:11.441Z,420.00
2023-04-20T10:57:11.469Z,419.00
2023-04-20T10:58:11.525Z,424.00
2023-04-20T10:59:11.618Z,425.00
2023-04-20T11:00:11.661Z,426.00
2023-04-20T11:01:11.633Z,426.00
2023-04-20T11:02:11.851Z,430.00
2023-04-20T11:03:11.781Z,428.00
2023-04-20T11:04:11.709Z,430.00
2023-04-20T11:05:11.974Z,432.00
2023-04-20T11:06:11.736Z,424.00
2023-04-20T11:07:11.752Z,423.00
2023-04-20T11:08:11.728Z,424.00
2023-04-20T11:09:11.707Z,432.00
2023-04-20T11:10:11.727Z,429.00
2023-04-20T11:11:11.711Z,429.00
2023-04-20T11:12:11.748Z,433.00
2023-04-20T11:13:11.742Z,432.00
2023-04-20T11:14:11.733Z,430.00
2023-04-20T11:15:11.748Z,428.00
2023-04-20T11:16:11.767Z,416.00
2023-04-20T11:17:11.806Z,424.00
2023-04-20T11:18:11.919Z,423.00
2023-04-20T11:19:11.760Z,428.00
2023-04-20T11:20:11.801Z,432.00
2023-04-20T11:21:11.752Z,424.00
2023-04-20T11:22:11.788Z,431.00
2023-04-20T11:23:11.870Z,433.00
2023-04-20T11:24:11.852Z,425.00
2023-04-20T11:25:11.922Z,423.00
2023-04-20T11:26:11.928Z,433.00
2023-04-20T11:27:11.901Z,429.00
2023-04-20T11:28:11.920Z,427.00
2023-04-20T11:29:11.934Z,427.00
2023-04-20T11:30:11.969Z,428.00
2023-04-20T11:31:12.072Z,425.00
2023-04-20T11:32:12.057Z,426.00
2023-04-20T11:33:12.203Z,423.00
2023-04-20T11:34:12.219Z,425.00
2023-04-20T11:35:12.105Z,427.00
2023-04-20T11:36:12.198Z,425.00
2023-04-20T11:37:12.239Z,431.00
2023-04-20T11:38:12.155Z,429.00
2023-04-20T11:39:12.195Z,433.00
2023-04-20T11:40:12.194Z,433.00
2023-04-20T11:41:12.237Z,430.00
2023-04-20T11:42:12.363Z,435.00
2023-04-20T11:43:12.375Z,432.00
2023-04-20T11:44:12.402Z,435.00
2023-04-20T11:45:12.461Z,427.00
2023-04-20T11:46:12.583Z,430.00
2023-04-20T11:47:12.677Z,433.00
2023-04-20T11:48:12.627Z,429.00
2023-04-20T11:49:12.691Z,436.00
2023-04-20T11:50:12.756Z,439.00
2023-04-20T11:51:12.865Z,433.00
2023-04-20T11:52:12.944Z,432.00
2023-04-20T11:53:12.952Z,436.00
2023-04-20T11:54:12.984Z,436.00
2023-04-20T11:55:13.039Z,434.00
2023-04-20T11:56:13.117Z,434.00
2023-04-20T11:57:13.133Z,437.00
2023-04-20T11:58:13.183Z,437.00
2023-04-20T11:59:13.264Z,421.00
2023-04-20T12:00:13.326Z,431.00
2023-04-20T12:01:13.383Z,432.00
2023-04-20T12:02:13.525Z,430.00
2023-04-20T12:03:13.609Z,435.00
2023-04-20T12:04:14.411Z,432.00
2023-04-20T12:05:13.698Z,437.00
2023-04-20T12:06:13.690Z,437.00
2023-04-20T12:07:13.729Z,437.00
2023-04-20T12:08:13.774Z,439.00
2023-04-20T12:09:13.840Z,440.00
2023-04-20T12:10:13.911Z,442.00
2023-04-20T12:11:13.970Z,439.00
2023-04-20T12:12:13.998Z,433.00
2023-04-20T12:13:14.039Z,429.00
2023-04-20T12:14:14.102Z,426.00
2023-04-20T12:15:14.197Z,427.00
2023-04-20T12:16:14.228Z,429.00
2023-04-20T12:17:14.284Z,435.00
2023-04-20T12:18:14.352Z,435.00
2023-04-20T12:19:14.412Z,426.00
2023-04-20T12:20:14.470Z,429.00
2023-04-20T12:21:14.498Z,427.00
2023-04-20T12:22:14.555Z,426.00
2023-04-20T12:23:14.642Z,430.00
2023-04-20T12:24:14.650Z,435.00
2023-04-20T12:25:14.729Z,437.00
2023-04-20T12:26:14.771Z,437.00
2023-04-20T12:27:14.836Z,436.00
2023-04-20T12:28:14.853Z,441.00
2023-04-20T12:29:14.912Z,435.00
2023-04-20T12:30:14.976Z,430.00